Time;durP1;ratioP1;P1;durP2;ratioP2;P2;SDS_P1;SDS_P2;PMS_P1;PMS_P2;Temp;Humidity;BMP_temperature;BMP_pressure;BME280_temperature;BME280_humidity;BME280_pressure;Samples;Min_cycle;Max_cycle;Signal;HPM_P1;HPM_P2
2022/06/20 00:01:57;;;;;;;3.85;2.20;;;;;;;;;;4345131;33;20133;-72
2022/06/20 00:33:29;;;;;;;4.82;2.08;;;;;;;;;;5024231;28;20070;-60
2022/06/20 00:35:57;;;;;;;2.97;2.28;;;;;;;;;;4303779;33;20106;-59
2022/06/20 00:38:23;;;;;;;3.12;1.90;;;;;;;;;;4291452;33;20514;-60
2022/06/20 00:41:15;;;;;;;2.70;2.00;;;;;;;;;;4291140;33;20612;-60
2022/06/20 00:43:46;;;;;;;2.28;2.00;;;;;;;;;;4304436;33;20112;-64
2022/06/20 00:46:28;;;;;;;2.22;2.03;;;;;;;;;;4291140;33;20094;-64
2022/06/20 00:49:11;;;;;;;3.80;1.98;;;;;;;;;;4304693;33;20227;-64
2022/06/20 00:51:46;;;;;;;4.97;2.03;;;;;;;;;;4304513;33;20113;-66
2022/06/20 00:54:34;;;;;;;2.00;1.90;;;;;;;;;;4290869;33;20131;-66
2022/06/20 00:57:15;;;;;;;4.78;2.00;;;;;;;;;;4291120;33;20189;-66
2022/06/20 00:59:50;;;;;;;4.90;1.75;;;;;;;;;;4304629;33;20142;-66
2022/06/20 01:02:26;;;;;;;2.17;1.70;;;;;;;;;;4291104;33;20120;-66
2022/06/20 01:05:06;;;;;;;0.98;0.98;;;;;;;;;;4290889;33;20193;-66
2022/06/20 01:07:42;;;;;;;0.90;0.90;;;;;;;;;;4304334;33;20467;-66
2022/06/20 01:10:10;;;;;;;1.75;1.52;;;;;;;;;;4304556;33;20123;-66
2022/06/20 01:12:45;;;;;;;2.00;1.90;;;;;;;;;;4291187;33;20096;-66
2022/06/20 01:15:38;;;;;;;1.85;1.75;;;;;;;;;;4290730;33;20151;-62
2022/06/20 01:18:05;;;;;;;2.25;1.70;;;;;;;;;;4288501;33;20107;-61
2022/06/20 01:20:34;;;;;;;2.00;1.80;;;;;;;;;;4304342;33;20107;-61
2022/06/20 01:23:05;;;;;;;2.00;1.40;;;;;;;;;;4290898;33;20110;-61
2022/06/20 01:26:01;;;;;;;1.02;1.02;;;;;;;;;;4304435;33;20110;-61
2022/06/20 01:28:31;;;;;;;0.93;0.93;;;;;;;;;;4304162;33;20201;-61
2022/06/20 01:30:59;;;;;;;1.85;1.70;;;;;;;;;;4304469;33;20123;-61
2022/06/20 01:33:25;;;;;;;2.60;2.08;;;;;;;;;;4304399;33;20514;-62
2022/06/20 01:38:38;;;;;;;2.70;1.73;;;;;;;;;;4304177;33;20149;-62
2022/06/20 01:43:49;;;;;;;;;;;;;;;;;;4291038;33;20107;-62
2022/06/20 01:46:16;;;;;;;1.15;1.15;;;;;;;;;;4290857;33;19975;-62
2022/06/20 01:48:44;;;;;;;1.27;1.25;;;;;;;;;;4290684;33;20432;-62
2022/06/20 01:51:19;;;;;;;1.10;1.10;;;;;;;;;;4290584;33;20095;-62
2022/06/20 01:53:45;;;;;;;3.90;2.08;;;;;;;;;;4304229;33;20111;-63
2022/06/20 01:56:11;;;;;;;1.62;1.52;;;;;;;;;;4304196;33;20106;-62
2022/06/20 01:58:47;;;;;;;2.33;1.90;;;;;;;;;;4303922;33;20151;-62
2022/06/20 02:01:14;;;;;;;2.15;1.80;;;;;;;;;;4304125;33;20102;-62
2022/06/20 02:03:42;;;;;;;2.25;1.85;;;;;;;;;;4303891;33;20111;-62
2022/06/20 02:06:10;;;;;;;4.90;1.77;;;;;;;;;;4290743;33;20123;-62
2022/06/20 02:08:37;;;;;;;2.25;2.05;;;;;;;;;;4290403;33;20546;-62
2022/06/20 02:11:11;;;;;;;2.95;2.67;;;;;;;;;;4290664;33;20187;-62
2022/06/20 02:13:41;;;;;;;2.65;2.20;;;;;;;;;;4290367;33;20116;-62
2022/06/20 02:16:10;;;;;;;3.33;1.67;;;;;;;;;;4290452;33;20092;-62
2022/06/20 02:18:39;;;;;;;2.28;1.80;;;;;;;;;;4290176;33;20102;-62
2022/06/20 02:21:09;;;;;;;0.98;0.98;;;;;;;;;;4290241;33;20117;-62
2022/06/20 02:23:37;;;;;;;1.60;1.50;;;;;;;;;;4278455;33;20515;-61
2022/06/20 02:26:05;;;;;;;2.37;2.03;;;;;;;;;;4289784;33;20201;-62
2022/06/20 02:28:37;;;;;;;1.77;1.67;;;;;;;;;;4290484;33;20943;-61
2022/06/20 02:31:05;;;;;;;2.30;2.00;;;;;;;;;;4303968;33;20111;-61
2022/06/20 02:33:31;;;;;;;1.58;1.33;;;;;;;;;;4278168;33;20183;-62
2022/06/20 02:35:58;;;;;;;2.28;1.42;;;;;;;;;;4303496;33;20717;-62
2022/06/20 02:38:24;;;;;;;4.68;2.40;;;;;;;;;;4303520;33;20952;-61
2022/06/20 02:40:51;;;;;;;2.58;1.58;;;;;;;;;;4290048;33;20114;-61
2022/06/20 02:43:24;;;;;;;2.70;1.55;;;;;;;;;;4303370;33;20507;-61
2022/06/20 02:45:52;;;;;;;6.55;2.20;;;;;;;;;;4290081;33;20548;-61
2022/06/20 02:48:18;;;;;;;4.78;2.15;;;;;;;;;;4277955;33;20115;-61
2022/06/20 02:51:00;;;;;;;3.22;2.03;;;;;;;;;;4303453;33;20112;-61
2022/06/20 02:53:44;;;;;;;2.15;1.90;;;;;;;;;;4290028;33;20124;-61
2022/06/20 02:56:14;;;;;;;2.30;2.05;;;;;;;;;;4277907;33;20522;-60
2022/06/20 02:58:43;;;;;;;2.47;2.28;;;;;;;;;;4303470;33;20107;-60
2022/06/20 03:01:27;;;;;;;2.53;2.33;;;;;;;;;;4289393;33;20168;-63
2022/06/20 03:03:55;;;;;;;1.85;1.75;;;;;;;;;;4303375;33;20191;-61
2022/06/20 03:06:29;;;;;;;1.58;1.48;;;;;;;;;;4303237;33;20103;-61
2022/06/20 03:08:56;;;;;;;4.15;1.55;;;;;;;;;;4289808;33;20146;-60
2022/06/20 03:11:22;;;;;;;2.08;1.87;;;;;;;;;;4299954;33;20114;-60
2022/06/20 03:13:49;;;;;;;2.20;1.77;;;;;;;;;;4289968;33;20107;-59
2022/06/20 03:16:15;;;;;;;3.83;1.40;;;;;;;;;;4303344;33;20108;-59
2022/06/20 03:18:44;;;;;;;4.03;1.95;;;;;;;;;;4289595;33;20202;-59
2022/06/20 03:21:11;;;;;;;1.85;1.62;;;;;;;;;;4302936;33;20095;-59
2022/06/20 03:23:38;;;;;;;1.80;1.50;;;;;;;;;;4303080;33;20139;-60
2022/06/20 03:26:06;;;;;;;3.35;2.33;;;;;;;;;;4302966;33;20490;-60
2022/06/20 03:28:33;;;;;;;8.00;2.28;;;;;;;;;;4289610;33;20450;-60
2022/06/20 03:31:00;;;;;;;1.98;1.62;;;;;;;;;;4301598;33;20099;-61
2022/06/20 03:33:26;;;;;;;7.05;2.30;;;;;;;;;;4288632;33;20108;-62
2022/06/20 03:36:13;;;;;;;1.50;1.40;;;;;;;;;;4288425;33;20607;-61
2022/06/20 03:38:40;;;;;;;1.92;1.62;;;;;;;;;;4289567;33;20511;-62
2022/06/20 03:41:08;;;;;;;1.73;1.60;;;;;;;;;;4277323;33;20194;-62
2022/06/20 03:43:34;;;;;;;1.40;1.30;;;;;;;;;;4290462;33;20637;-63
2022/06/20 03:46:05;;;;;;;2.55;1.75;;;;;;;;;;4296778;33;20119;-62
2022/06/20 03:48:41;;;;;;;4.93;1.75;;;;;;;;;;4304475;33;20127;-62
2022/06/20 03:51:13;;;;;;;2.28;1.75;;;;;;;;;;4282926;33;20439;-62
2022/06/20 03:53:45;;;;;;;2.58;1.45;;;;;;;;;;4286188;33;20135;-63
2022/06/20 03:56:17;;;;;;;2.28;2.03;;;;;;;;;;4305417;33;20111;-64
2022/06/20 03:59:02;;;;;;;3.92;2.28;;;;;;;;;;4305448;33;20119;-64
2022/06/20 04:01:40;;;;;;;3.17;2.10;;;;;;;;;;4291934;33;20127;-64
2022/06/20 04:04:12;;;;;;;3.12;2.03;;;;;;;;;;4305170;33;20096;-63
2022/06/20 04:06:40;;;;;;;2.10;1.90;;;;;;;;;;4304856;33;20475;-63
2022/06/20 04:12:10;;;;;;;2.17;1.98;;;;;;;;;;4293253;33;20110;-63
2022/06/20 04:15:03;;;;;;;4.22;2.47;;;;;;;;;;4291682;33;20610;-62
2022/06/20 04:20:25;;;;;;;4.32;2.20;;;;;;;;;;4293148;33;20558;-67
2022/06/20 04:22:52;;;;;;;2.05;1.90;;;;;;;;;;4290879;33;20127;-62
2022/06/20 04:25:25;;;;;;;2.42;2.05;;;;;;;;;;4289087;33;20107;-62
2022/06/20 04:27:56;;;;;;;3.40;2.28;;;;;;;;;;4291261;33;20124;-62
2022/06/20 04:30:53;;;;;;;2.67;2.42;;;;;;;;;;4291531;33;20123;-62
2022/06/20 04:33:36;;;;;;;2.55;2.35;;;;;;;;;;4266490;33;20091;-59
2022/06/20 04:36:05;;;;;;;3.17;2.30;;;;;;;;;;4304690;33;20459;-60
2022/06/20 04:38:41;;;;;;;2.30;2.10;;;;;;;;;;4304454;33;20130;-61
2022/06/20 04:41:22;;;;;;;3.70;2.30;;;;;;;;;;4291582;33;20092;-61
2022/06/20 04:44:00;;;;;;;3.95;2.67;;;;;;;;;;4291263;33;20110;-61
2022/06/20 04:46:32;;;;;;;2.95;2.58;;;;;;;;;;4304611;33;20112;-62
2022/06/20 04:49:00;;;;;;;4.05;2.60;;;;;;;;;;4304367;33;20209;-62
2022/06/20 04:51:31;;;;;;;3.45;2.40;;;;;;;;;;4291243;33;20101;-61
2022/06/20 04:53:57;;;;;;;4.12;2.50;;;;;;;;;;4279064;33;20125;-61
2022/06/20 04:56:26;;;;;;;7.07;2.60;;;;;;;;;;4304496;33;20096;-61
2022/06/20 04:59:04;;;;;;;5.22;2.67;;;;;;;;;;4304345;33;20180;-61
2022/06/20 05:01:33;;;;;;;4.50;2.62;;;;;;;;;;4304380;33;20290;-61
2022/06/20 05:04:06;;;;;;;3.45;2.70;;;;;;;;;;4304527;33;20096;-61
2022/06/20 05:06:32;;;;;;;2.58;2.33;;;;;;;;;;4291227;33;20108;-61
2022/06/20 05:09:34;;;;;;;4.35;2.75;;;;;;;;;;4304339;33;20114;-62
2022/06/20 05:12:20;;;;;;;3.40;2.37;;;;;;;;;;4281203;33;20193;-61
2022/06/20 05:14:59;;;;;;;6.47;2.87;;;;;;;;;;4291094;33;20151;-62
2022/06/20 05:17:28;;;;;;;5.12;2.70;;;;;;;;;;4290936;33;20259;-64
2022/06/20 05:20:01;;;;;;;3.45;2.70;;;;;;;;;;4291255;33;20096;-61
2022/06/20 05:22:31;;;;;;;3.50;2.90;;;;;;;;;;4291108;33;20115;-61
2022/06/20 05:24:59;;;;;;;5.07;2.15;;;;;;;;;;4290854;33;20619;-61
2022/06/20 05:27:40;;;;;;;3.33;2.58;;;;;;;;;;4290727;33;20122;-61
2022/06/20 05:30:07;;;;;;;3.28;2.97;;;;;;;;;;4291151;33;20100;-62
2022/06/20 05:32:37;;;;;;;3.35;2.70;;;;;;;;;;4304024;33;20098;-61
2022/06/20 05:35:07;;;;;;;4.40;2.90;;;;;;;;;;4290920;33;20619;-62
2022/06/20 05:37:36;;;;;;;3.67;2.58;;;;;;;;;;4290665;33;20099;-62
2022/06/20 05:40:15;;;;;;;6.47;3.20;;;;;;;;;;4304326;33;20126;-62
2022/06/20 05:42:41;;;;;;;4.57;3.10;;;;;;;;;;4290654;33;20106;-62
2022/06/20 05:45:22;;;;;;;6.10;2.70;;;;;;;;;;4304311;33;20131;-62
2022/06/20 05:47:53;;;;;;;10.05;2.97;;;;;;;;;;4290441;33;20107;-61
2022/06/20 05:50:44;;;;;;;6.37;3.30;;;;;;;;;;4304090;33;20556;-60
2022/06/20 05:53:14;;;;;;;1.77;1.65;;;;;;;;;;4290745;33;20474;-60
2022/06/20 05:55:47;;;;;;;5.32;3.95;;;;;;;;;;4290514;33;20091;-61
2022/06/20 05:58:18;;;;;;;5.18;2.97;;;;;;;;;;4304218;33;20107;-61
2022/06/20 06:00:45;;;;;;;8.93;3.00;;;;;;;;;;4289706;33;20443;-61
2022/06/20 06:03:18;;;;;;;6.68;3.33;;;;;;;;;;4303757;33;20474;-61
2022/06/20 06:05:48;;;;;;;2.50;2.30;;;;;;;;;;4290582;33;20282;-61
2022/06/20 06:08:24;;;;;;;4.53;3.00;;;;;;;;;;4303762;33;20107;-62
2022/06/20 06:11:05;;;;;;;7.50;4.45;;;;;;;;;;4304177;33;20108;-62
2022/06/20 06:13:46;;;;;;;7.97;3.25;;;;;;;;;;4304011;33;20115;-61
2022/06/20 06:16:48;;;;;;;4.00;2.83;;;;;;;;;;4303864;33;20491;-62
2022/06/20 06:19:32;;;;;;;3.17;2.83;;;;;;;;;;4274586;33;20210;-62
2022/06/20 06:22:00;;;;;;;7.10;2.70;;;;;;;;;;4304024;33;20225;-60
2022/06/20 06:24:27;;;;;;;3.20;2.78;;;;;;;;;;4303798;33;20114;-61
2022/06/20 06:26:59;;;;;;;3.45;2.80;;;;;;;;;;4303752;33;20121;-60
2022/06/20 06:29:29;;;;;;;3.62;2.75;;;;;;;;;;4290505;33;20102;-61
2022/06/20 06:31:59;;;;;;;3.47;3.10;;;;;;;;;;4303549;33;20487;-62
2022/06/20 06:34:28;;;;;;;4.25;2.80;;;;;;;;;;4290316;33;20111;-63
2022/06/20 06:36:58;;;;;;;2.70;2.30;;;;;;;;;;4303870;33;20131;-62
2022/06/20 06:39:41;;;;;;;6.20;2.67;;;;;;;;;;4290022;33;20198;-61
2022/06/20 06:42:10;;;;;;;5.03;2.60;;;;;;;;;;4290157;33;20303;-62
2022/06/20 06:44:41;;;;;;;3.40;2.30;;;;;;;;;;4290459;33;20470;-61
2022/06/20 06:47:23;;;;;;;3.67;2.47;;;;;;;;;;4290510;33;20122;-61
2022/06/20 06:49:54;;;;;;;3.72;2.53;;;;;;;;;;4289928;33;20538;-61
2022/06/20 06:52:25;;;;;;;4.05;2.83;;;;;;;;;;4303379;33;20279;-61
2022/06/20 06:55:20;;;;;;;2.30;2.10;;;;;;;;;;4290143;33;20217;-61
2022/06/20 06:57:54;;;;;;;3.20;2.43;;;;;;;;;;4274429;33;20111;-61
2022/06/20 07:00:31;;;;;;;4.68;2.83;;;;;;;;;;4290285;33;20134;-61
2022/06/20 07:03:01;;;;;;;7.40;2.30;;;;;;;;;;4290169;33;20564;-61
2022/06/20 07:05:42;;;;;;;2.92;2.50;;;;;;;;;;4303368;33;20483;-62
2022/06/20 07:08:16;;;;;;;8.32;2.83;;;;;;;;;;4289885;33;20095;-62
2022/06/20 07:11:06;;;;;;;7.47;2.93;;;;;;;;;;4290146;33;20511;-62
2022/06/20 07:13:38;;;;;;;2.50;2.30;;;;;;;;;;4291579;33;20111;-62
2022/06/20 07:16:11;;;;;;;4.03;2.62;;;;;;;;;;4292048;33;20106;-61
2022/06/20 07:18:43;;;;;;;6.40;3.87;;;;;;;;;;4305359;33;20150;-61
2022/06/20 07:21:15;;;;;;;5.50;2.95;;;;;;;;;;4291798;33;20194;-61
2022/06/20 07:23:43;;;;;;;4.40;3.25;;;;;;;;;;4291712;33;20115;-61
2022/06/20 07:26:11;;;;;;;3.42;3.08;;;;;;;;;;4305371;33;20131;-61
2022/06/20 07:28:43;;;;;;;5.57;3.30;;;;;;;;;;4291834;33;20158;-62
2022/06/20 07:31:18;;;;;;;4.07;3.35;;;;;;;;;;4291877;33;20114;-61
2022/06/20 07:33:49;;;;;;;5.72;3.42;;;;;;;;;;4291833;33;20104;-61
2022/06/20 07:36:18;;;;;;;7.95;3.50;;;;;;;;;;4305280;33;20757;-59
2022/06/20 07:38:51;;;;;;;5.25;2.92;;;;;;;;;;4291776;33;20123;-61
2022/06/20 07:41:32;;;;;;;6.28;2.72;;;;;;;;;;4291985;33;20186;-62
2022/06/20 07:44:17;;;;;;;6.47;2.87;;;;;;;;;;4305170;33;20202;-62
2022/06/20 07:46:52;;;;;;;6.40;3.42;;;;;;;;;;4291754;33;20447;-61
2022/06/20 07:49:26;;;;;;;4.15;3.40;;;;;;;;;;4305391;33;20104;-61
2022/06/20 07:51:56;;;;;;;4.37;3.42;;;;;;;;;;4291915;33;20126;-61
2022/06/20 07:54:33;;;;;;;7.18;3.53;;;;;;;;;;4291657;33;20152;-62
2022/06/20 07:57:04;;;;;;;4.43;3.12;;;;;;;;;;4305113;33;20095;-60
2022/06/20 07:59:31;;;;;;;5.43;3.50;;;;;;;;;;4305096;33;20174;-62
2022/06/20 08:02:06;;;;;;;4.95;2.95;;;;;;;;;;4291468;33;20609;-61
2022/06/20 08:04:34;;;;;;;6.10;3.65;;;;;;;;;;4291488;33;20195;-61
2022/06/20 08:07:21;;;;;;;6.20;3.20;;;;;;;;;;4305054;33;20491;-61
2022/06/20 08:10:07;;;;;;;4.40;3.30;;;;;;;;;;4305045;33;20116;-62
2022/06/20 08:12:38;;;;;;;4.35;3.33;;;;;;;;;;4304843;33;20567;-63
2022/06/20 08:15:11;;;;;;;7.65;2.60;;;;;;;;;;4291636;33;20130;-61
2022/06/20 08:17:37;;;;;;;6.32;3.10;;;;;;;;;;4291700;33;20174;-62
2022/06/20 08:20:04;;;;;;;6.43;3.17;;;;;;;;;;4291209;33;20483;-61
2022/06/20 08:22:49;;;;;;;4.20;2.70;;;;;;;;;;4291267;33;20107;-61
2022/06/20 08:25:21;;;;;;;6.00;3.80;;;;;;;;;;4290672;33;20111;-60
2022/06/20 08:28:05;;;;;;;4.65;3.15;;;;;;;;;;4305121;33;20112;-61
2022/06/20 08:30:39;;;;;;;4.53;3.00;;;;;;;;;;4291501;33;20118;-61
2022/06/20 08:33:36;;;;;;;3.40;2.75;;;;;;;;;;4304781;33;20116;-64
2022/06/20 08:36:14;;;;;;;5.20;3.50;;;;;;;;;;4304368;33;20122;-61
2022/06/20 08:38:52;;;;;;;7.53;3.20;;;;;;;;;;4291198;33;20138;-61
2022/06/20 08:41:53;;;;;;;8.07;3.30;;;;;;;;;;4304845;33;20194;-62
2022/06/20 08:44:18;;;;;;;6.35;3.30;;;;;;;;;;4267285;33;20096;-61
2022/06/20 08:46:53;;;;;;;3.10;2.78;;;;;;;;;;4304698;33;20222;-65
2022/06/20 08:50:18;;;;;;;6.80;4.47;;;;;;;;;;4304562;33;20110;-61
2022/06/20 08:53:07;;;;;;;5.00;4.53;;;;;;;;;;4244777;33;20434;-61
2022/06/20 08:55:45;;;;;;;5.12;2.70;;;;;;;;;;4233317;33;20128;-61
2022/06/20 08:58:17;;;;;;;9.60;3.00;;;;;;;;;;4295350;33;20122;-61
2022/06/20 09:00:47;;;;;;;6.18;3.47;;;;;;;;;;4304666;33;20111;-61
2022/06/20 09:03:19;;;;;;;4.80;3.10;;;;;;;;;;4304334;33;20138;-65
2022/06/20 09:06:11;;;;;;;7.25;3.55;;;;;;;;;;4304710;33;20139;-64
2022/06/20 09:08:42;;;;;;;4.37;3.15;;;;;;;;;;4301448;33;20529;-62
2022/06/20 09:11:33;;;;;;;5.28;3.92;;;;;;;;;;4304432;33;20215;-63
2022/06/20 09:14:37;;;;;;;6.80;3.55;;;;;;;;;;4304420;33;20095;-60
2022/06/20 09:17:09;;;;;;;7.43;4.25;;;;;;;;;;4293944;33;20123;-62
2022/06/20 09:20:01;;;;;;;4.57;3.40;;;;;;;;;;4304318;33;20101;-64
2022/06/20 09:22:52;;;;;;;9.60;3.00;;;;;;;;;;4290966;33;20119;-63
2022/06/20 09:25:36;;;;;;;5.68;4.75;;;;;;;;;;4304480;33;20191;-63
2022/06/20 09:28:24;;;;;;;5.05;3.20;;;;;;;;;;4304476;33;20123;-63
2022/06/20 09:30:57;;;;;;;3.80;3.37;;;;;;;;;;4304472;33;20130;-63
2022/06/20 09:33:58;;;;;;;4.78;3.00;;;;;;;;;;4290686;33;20111;-63
2022/06/20 09:36:58;;;;;;;7.68;3.70;;;;;;;;;;4281359;33;20107;-62
2022/06/20 09:39:31;;;;;;;5.87;3.12;;;;;;;;;;4273947;33;20111;-62
2022/06/20 09:42:18;;;;;;;3.42;3.10;;;;;;;;;;4290842;33;20504;-62
2022/06/20 09:45:07;;;;;;;4.47;3.10;;;;;;;;;;4290889;33;20190;-62
2022/06/20 09:47:36;;;;;;;14.82;11.40;;;;;;;;;;4304271;33;20118;-61
2022/06/20 09:50:21;;;;;;;6.15;3.62;;;;;;;;;;4304221;33;20137;-62
2022/06/20 09:53:40;;;;;;;7.07;3.60;;;;;;;;;;4304252;33;20183;-63
2022/06/20 09:56:25;;;;;;;5.05;3.40;;;;;;;;;;4230570;33;20132;-62
2022/06/20 09:59:03;;;;;;;7.80;3.35;;;;;;;;;;4304117;33;20111;-62
2022/06/20 10:01:31;;;;;;;6.20;3.40;;;;;;;;;;4304144;33;20137;-62
2022/06/20 10:04:07;;;;;;;7.32;3.60;;;;;;;;;;4304005;33;20115;-61
2022/06/20 10:07:10;;;;;;;7.18;5.03;;;;;;;;;;4290767;33;20107;-62
2022/06/20 10:09:42;;;;;;;6.50;3.70;;;;;;;;;;4304261;33;20181;-61
2022/06/20 10:12:08;;;;;;;3.58;3.10;;;;;;;;;;4303892;33;20439;-61
2022/06/20 10:14:59;;;;;;;6.53;3.22;;;;;;;;;;4304270;33;20091;-60
2022/06/20 10:17:34;;;;;;;6.60;4.03;;;;;;;;;;4290381;33;20108;-62
2022/06/20 10:20:09;;;;;;;5.07;3.53;;;;;;;;;;4290532;33;20542;-61
2022/06/20 10:23:03;;;;;;;16.62;9.38;;;;;;;;;;4290168;33;20107;-60
2022/06/20 10:25:41;;;;;;;33.95;21.30;;;;;;;;;;4303915;33;20107;-62
2022/06/20 10:28:25;;;;;;;33.30;25.20;;;;;;;;;;4290191;33;20226;-61
2022/06/20 10:31:08;;;;;;;44.05;31.20;;;;;;;;;;4303915;33;20624;-61
2022/06/20 10:34:06;;;;;;;24.35;19.92;;;;;;;;;;4304020;33;20121;-61
2022/06/20 10:36:53;;;;;;;56.67;43.55;;;;;;;;;;4278141;33;20233;-64
2022/06/20 10:39:45;;;;;;;97.62;74.57;;;;;;;;;;4290126;33;20134;-67
2022/06/20 10:42:32;;;;;;;103.68;78.87;;;;;;;;;;4290422;33;20745;-65
2022/06/20 10:45:28;;;;;;;95.72;75.53;;;;;;;;;;4303443;33;20130;-62
2022/06/20 10:47:59;;;;;;;149.85;95.50;;;;;;;;;;4302978;33;20193;-62
2022/06/20 10:50:30;;;;;;;89.25;68.55;;;;;;;;;;4303402;33;20495;-62
2022/06/20 10:53:33;;;;;;;226.32;147.90;;;;;;;;;;4289981;33;20519;-61
2022/06/20 10:56:02;;;;;;;120.30;80.82;;;;;;;;;;4303416;33;20201;-60
2022/06/20 10:58:56;;;;;;;96.15;71.80;;;;;;;;;;4303501;33;20107;-62
2022/06/20 11:01:24;;;;;;;26.58;23.95;;;;;;;;;;4303331;33;20150;-61
2022/06/20 11:04:18;;;;;;;7.43;4.78;;;;;;;;;;4289878;33;20107;-61
2022/06/20 11:06:47;;;;;;;5.80;3.10;;;;;;;;;;4290203;33;20194;-61
2022/06/20 11:09:22;;;;;;;4.20;3.10;;;;;;;;;;4303295;33;20530;-61
2022/06/20 11:12:06;;;;;;;5.05;3.42;;;;;;;;;;4303350;33;20152;-61
2022/06/20 11:14:45;;;;;;;5.00;3.97;;;;;;;;;;4303268;33;20229;-62
2022/06/20 11:17:30;;;;;;;4.75;3.37;;;;;;;;;;4290113;33;20127;-62
2022/06/20 11:20:20;;;;;;;4.22;3.05;;;;;;;;;;4303248;33;20535;-61
2022/06/20 11:22:59;;;;;;;3.58;2.90;;;;;;;;;;4303104;33;20107;-60
2022/06/20 11:25:40;;;;;;;9.63;3.05;;;;;;;;;;4289702;33;20116;-61
2022/06/20 11:28:16;;;;;;;3.50;2.67;;;;;;;;;;4289555;33;20134;-62
2022/06/20 11:31:25;;;;;;;5.50;3.87;;;;;;;;;;4303061;33;20131;-61
2022/06/20 11:34:09;;;;;;;6.25;3.00;;;;;;;;;;4244855;33;20194;-61
2022/06/20 11:37:01;;;;;;;5.82;3.50;;;;;;;;;;4302961;33;20193;-61
2022/06/20 11:39:38;;;;;;;7.45;5.43;;;;;;;;;;4295149;33;20580;-61
2022/06/20 11:42:29;;;;;;;5.95;4.20;;;;;;;;;;4289561;33;20195;-61
2022/06/20 11:45:13;;;;;;;19.37;12.60;;;;;;;;;;4303251;33;20088;-61
2022/06/20 11:48:06;;;;;;;8.60;5.53;;;;;;;;;;4303176;33;20134;-61
2022/06/20 11:50:35;;;;;;;5.62;3.35;;;;;;;;;;4302871;33;20139;-61
2022/06/20 11:53:10;;;;;;;6.03;3.50;;;;;;;;;;4302737;33;20517;-61
2022/06/20 11:55:38;;;;;;;8.10;3.47;;;;;;;;;;4302770;33;20146;-61
2022/06/20 11:58:16;;;;;;;7.85;6.15;;;;;;;;;;4302805;33;20119;-61
2022/06/20 12:01:17;;;;;;;9.57;5.57;;;;;;;;;;4291575;33;20229;-60
2022/06/20 12:04:06;;;;;;;7.80;4.62;;;;;;;;;;4291492;33;20123;-61
2022/06/20 12:06:45;;;;;;;4.78;3.85;;;;;;;;;;4304749;33;20107;-61
2022/06/20 12:09:48;;;;;;;6.68;5.45;;;;;;;;;;4304937;33;20514;-61
2022/06/20 12:12:20;;;;;;;4.18;3.08;;;;;;;;;;4304902;33;20111;-60
2022/06/20 12:15:22;;;;;;;24.85;16.15;;;;;;;;;;4291611;33;20167;-61
2022/06/20 12:17:54;;;;;;;17.30;10.50;;;;;;;;;;4231127;33;20121;-61
2022/06/20 12:23:45;;;;;;;6.50;2.37;;;;;;;;;;4304830;33;20189;-61
2022/06/20 12:26:22;;;;;;;13.10;7.12;;;;;;;;;;4291465;33;20098;-60
2022/06/20 12:28:50;;;;;;;2.85;2.42;;;;;;;;;;4291537;33;20099;-61
2022/06/20 12:31:31;;;;;;;3.45;2.33;;;;;;;;;;4304754;33;20210;-61
2022/06/20 12:34:18;;;;;;;6.03;3.67;;;;;;;;;;4291293;33;20135;-60
2022/06/20 12:36:56;;;;;;;3.47;2.55;;;;;;;;;;4304934;33;20115;-60
2022/06/20 12:39:26;;;;;;;5.70;3.72;;;;;;;;;;4304773;33;20099;-61
2022/06/20 12:42:09;;;;;;;3.87;3.08;;;;;;;;;;4304915;33;20095;-60
2022/06/20 12:45:06;;;;;;;5.60;3.80;;;;;;;;;;4304596;33;20100;-60
2022/06/20 12:47:47;;;;;;;5.45;3.72;;;;;;;;;;4304616;33;20142;-61
2022/06/20 12:50:24;;;;;;;5.18;4.10;;;;;;;;;;4304832;33;20163;-61
2022/06/20 12:52:56;;;;;;;7.65;4.07;;;;;;;;;;4291350;33;20111;-61
2022/06/20 12:55:52;;;;;;;4.90;4.12;;;;;;;;;;4304500;33;20105;-61
2022/06/20 12:58:41;;;;;;;3.97;3.62;;;;;;;;;;4291051;33;20130;-60
2022/06/20 13:01:38;;;;;;;3.58;3.28;;;;;;;;;;4291332;33;20537;-61
2022/06/20 13:04:37;;;;;;;5.85;3.40;;;;;;;;;;4291079;33;20118;-60
2022/06/20 13:07:30;;;;;;;4.20;3.65;;;;;;;;;;4272006;33;20122;-60
2022/06/20 13:10:26;;;;;;;3.95;3.20;;;;;;;;;;4304513;33;20198;-60
2022/06/20 13:12:58;;;;;;;3.22;2.87;;;;;;;;;;4304749;33;20491;-61
2022/06/20 13:15:58;;;;;;;4.22;3.10;;;;;;;;;;4304599;33;20446;-62
2022/06/20 13:18:51;;;;;;;5.18;3.25;;;;;;;;;;4278382;33;20534;-61
2022/06/20 13:21:49;;;;;;;4.87;2.75;;;;;;;;;;4304332;33;20518;-61
2022/06/20 13:24:28;;;;;;;4.40;3.25;;;;;;;;;;4291268;33;20111;-61
2022/06/20 13:27:28;;;;;;;7.07;3.00;;;;;;;;;;4304330;33;20570;-61
2022/06/20 13:30:08;;;;;;;4.32;3.42;;;;;;;;;;4290968;33;20470;-61
2022/06/20 13:32:39;;;;;;;7.50;2.95;;;;;;;;;;4290747;33;20111;-61
2022/06/20 13:35:25;;;;;;;4.28;3.62;;;;;;;;;;4290744;33;20115;-61
2022/06/20 13:37:50;;;;;;;3.97;3.08;;;;;;;;;;4279053;33;20134;-61
2022/06/20 13:40:35;;;;;;;3.58;3.10;;;;;;;;;;4304024;33;20497;-61
2022/06/20 13:43:04;;;;;;;3.53;3.20;;;;;;;;;;4304408;33;20128;-62
2022/06/20 13:45:40;;;;;;;3.10;2.72;;;;;;;;;;4304408;33;20145;-61
2022/06/20 13:48:17;;;;;;;5.53;2.60;;;;;;;;;;4304188;33;20111;-62
2022/06/20 13:50:49;;;;;;;2.92;2.60;;;;;;;;;;4290874;33;20225;-61
2022/06/20 13:53:38;;;;;;;3.42;3.12;;;;;;;;;;4290642;33;20103;-62
2022/06/20 13:56:21;;;;;;;4.25;2.78;;;;;;;;;;4290610;33;20190;-62
2022/06/20 13:59:12;;;;;;;3.87;2.90;;;;;;;;;;4290542;33;20168;-61
2022/06/20 14:01:54;;;;;;;4.22;3.05;;;;;;;;;;4290503;33;20206;-61
2022/06/20 14:04:20;;;;;;;3.05;2.47;;;;;;;;;;4304381;33;20096;-61
2022/06/20 14:06:52;;;;;;;3.65;3.08;;;;;;;;;;4303884;33;20111;-61
2022/06/20 14:09:41;;;;;;;2.95;2.62;;;;;;;;;;4290388;33;20120;-62
2022/06/20 14:12:22;;;;;;;4.57;2.40;;;;;;;;;;4303474;33;20130;-62
2022/06/20 14:14:50;;;;;;;3.22;2.67;;;;;;;;;;4303745;33;20115;-64
2022/06/20 14:17:19;;;;;;;2.65;2.45;;;;;;;;;;4303821;33;20189;-62
2022/06/20 14:19:55;;;;;;;3.35;2.25;;;;;;;;;;4303926;33;20555;-62
2022/06/20 14:22:27;;;;;;;2.50;2.17;;;;;;;;;;4289481;33;20574;-62
2022/06/20 14:24:53;;;;;;;2.22;2.00;;;;;;;;;;4303957;33;20118;-62
2022/06/20 14:27:23;;;;;;;2.65;2.08;;;;;;;;;;4290455;33;20092;-62
2022/06/20 14:30:01;;;;;;;3.28;2.17;;;;;;;;;;4290356;33;20127;-63
2022/06/20 14:32:39;;;;;;;3.92;2.47;;;;;;;;;;4290228;33;20111;-61
2022/06/20 14:35:24;;;;;;;6.10;2.40;;;;;;;;;;4278699;33;20113;-62
2022/06/20 14:38:19;;;;;;;3.12;2.35;;;;;;;;;;4303694;33;20102;-61
2022/06/20 14:40:49;;;;;;;5.47;2.53;;;;;;;;;;4303507;33;20118;-62
2022/06/20 14:43:37;;;;;;;4.35;2.55;;;;;;;;;;4290182;33;20115;-61
2022/06/20 14:46:23;;;;;;;5.07;2.85;;;;;;;;;;4290178;33;20121;-62
2022/06/20 14:49:00;;;;;;;;;;;;;;;;;;4304143;33;20102;-62
2022/06/20 14:51:39;;;;;;;7.60;4.00;;;;;;;;;;4303747;33;19998;-62
2022/06/20 14:54:17;;;;;;;3.78;2.47;;;;;;;;;;4304433;33;20099;-63
2022/06/20 14:56:58;;;;;;;3.92;2.60;;;;;;;;;;4291024;33;20092;-62
2022/06/20 14:59:32;;;;;;;4.45;2.83;;;;;;;;;;4303378;33;20290;-61
2022/06/20 15:02:12;;;;;;;2.42;2.22;;;;;;;;;;4290098;33;20099;-61
2022/06/20 15:04:49;;;;;;;3.55;2.33;;;;;;;;;;4289808;33;20096;-59
2022/06/20 15:07:22;;;;;;;2.70;2.20;;;;;;;;;;4308967;33;20531;-60
2022/06/20 15:09:55;;;;;;;4.28;2.70;;;;;;;;;;4298027;33;20638;-65
2022/06/20 15:12:23;;;;;;;4.75;2.30;;;;;;;;;;4297913;33;20103;-63
2022/06/20 15:14:57;;;;;;;4.15;2.50;;;;;;;;;;4267534;33;20551;-60
2022/06/20 15:17:45;;;;;;;2.42;2.22;;;;;;;;;;4285327;33;20700;-61
2022/06/20 15:20:25;;;;;;;5.05;2.10;;;;;;;;;;4291531;33;20098;-59
2022/06/20 15:22:56;;;;;;;2.40;2.20;;;;;;;;;;4289616;33;20515;-58
2022/06/20 15:25:31;;;;;;;2.87;1.90;;;;;;;;;;4265623;33;20123;-61
2022/06/20 15:28:22;;;;;;;3.22;2.65;;;;;;;;;;4303096;33;20512;-60
2022/06/20 15:30:58;;;;;;;3.22;2.10;;;;;;;;;;4293420;33;20125;-61
2022/06/20 15:33:34;;;;;;;3.60;1.77;;;;;;;;;;4308931;33;20187;-61
2022/06/20 15:36:22;;;;;;;4.45;2.53;;;;;;;;;;4311096;33;20119;-60
2022/06/20 15:39:08;;;;;;;6.30;3.03;;;;;;;;;;4305084;33;20118;-61
2022/06/20 15:41:38;;;;;;;;;;;;;;;;;;4292091;33;20151;-63
2022/06/20 15:44:25;;;;;;;3.53;2.20;;;;;;;;;;4309109;33;19981;-62
2022/06/20 15:46:56;;;;;;;5.72;2.42;;;;;;;;;;4299356;33;20648;-61
2022/06/20 15:49:27;;;;;;;4.72;2.58;;;;;;;;;;4298553;33;20111;-61
2022/06/20 15:52:09;;;;;;;6.05;2.92;;;;;;;;;;4304968;33;20091;-62
2022/06/20 15:55:03;;;;;;;6.32;3.05;;;;;;;;;;4305442;33;20154;-59
2022/06/20 15:57:48;;;;;;;3.87;2.70;;;;;;;;;;4291439;33;20107;-61
2022/06/20 16:00:22;;;;;;;3.53;2.62;;;;;;;;;;4291385;33;20549;-61
2022/06/20 16:03:15;;;;;;;4.00;2.40;;;;;;;;;;4291153;33;20131;-61
2022/06/20 16:06:10;;;;;;;4.85;2.60;;;;;;;;;;4306351;33;20111;-61
2022/06/20 16:08:57;;;;;;;3.33;2.70;;;;;;;;;;4299055;33;20198;-61
2022/06/20 16:11:32;;;;;;;4.47;2.58;;;;;;;;;;4312049;33;20193;-61
2022/06/20 16:13:58;;;;;;;6.05;3.53;;;;;;;;;;4309542;33;20126;-61
2022/06/20 16:16:26;;;;;;;7.15;2.78;;;;;;;;;;4310694;33;20091;-61
2022/06/20 16:18:57;;;;;;;3.45;2.50;;;;;;;;;;4299146;33;20205;-61
2022/06/20 16:21:25;;;;;;;3.10;2.75;;;;;;;;;;4307265;33;20115;-60
2022/06/20 16:23:54;;;;;;;10.02;3.08;;;;;;;;;;4301210;33;20134;-61
2022/06/20 16:26:25;;;;;;;2.78;2.20;;;;;;;;;;4318898;33;20202;-61
2022/06/20 16:29:20;;;;;;;4.82;2.50;;;;;;;;;;4319090;33;20115;-61